Time;durP1;ratioP1;P1;durP2;ratioP2;P2;SDS_P1;SDS_P2;PMS_P1;PMS_P2;Temp;Humidity;BMP_temperature;BMP_pressure;BME280_temperature;BME280_humidity;BME280_pressure;Samples;Min_cycle;Max_cycle;Signal;HPM_P1;HPM_P2
2023/08/01 00:02:19;;;;;;;6.00;4.10;;;;;;;27.07;49.50;99160.41;5091620;28;20039;-46
2023/08/01 00:04:45;;;;;;;5.88;4.20;;;;;;;27.09;49.36;99154.59;5090941;28;20028;-45
2023/08/01 00:07:10;;;;;;;4.78;3.85;;;;;;;27.18;49.08;99163.53;5091597;28;20024;-45
2023/08/01 00:09:36;;;;;;;4.45;4.03;;;;;;;27.02;49.13;99157.03;5091499;28;20024;-45
2023/08/01 00:12:01;;;;;;;5.15;3.95;;;;;;;26.95;49.26;99157.53;5091273;28;20020;-43
2023/08/01 00:14:27;;;;;;;4.75;3.92;;;;;;;26.96;49.45;99158.34;5091260;28;20024;-48
2023/08/01 00:16:52;;;;;;;5.57;4.00;;;;;;;26.84;49.42;99145.38;5091277;28;20452;-44
2023/08/01 00:19:18;;;;;;;4.85;4.05;;;;;;;26.99;49.23;99153.03;5090862;28;20040;-45
2023/08/01 00:21:44;;;;;;;5.10;3.88;;;;;;;26.98;49.04;99131.50;5090980;28;20028;-47
2023/08/01 00:24:09;;;;;;;6.05;4.25;;;;;;;26.96;49.32;99140.03;5090890;28;20032;-44
2023/08/01 00:26:35;;;;;;;5.13;3.88;;;;;;;26.90;49.00;99136.69;5091042;28;20024;-47
2023/08/01 00:29:01;;;;;;;6.68;3.95;;;;;;;26.79;49.23;99140.09;5091031;28;20407;-45
2023/08/01 00:31:26;;;;;;;5.72;4.00;;;;;;;26.87;49.40;99139.28;5090769;28;20471;-48
2023/08/01 00:33:51;;;;;;;5.43;3.80;;;;;;;26.77;49.84;99139.59;5090833;28;20399;-47
2023/08/01 00:36:17;;;;;;;5.43;3.83;;;;;;;26.68;49.80;99134.19;5090943;28;20055;-46
2023/08/01 00:38:43;;;;;;;5.07;4.10;;;;;;;26.76;49.28;99129.84;5090952;28;20028;-45
2023/08/01 00:41:11;;;;;;;7.72;3.80;;;;;;;26.59;49.96;99130.66;5090697;28;20075;-46
2023/08/01 00:43:36;;;;;;;5.35;3.85;;;;;;;26.64;49.48;99125.06;5090654;28;20028;-44
2023/08/01 00:46:04;;;;;;;5.57;3.80;;;;;;;26.52;49.78;99121.06;5090702;28;20447;-46
2023/08/01 00:48:31;;;;;;;4.82;3.85;;;;;;;26.51;49.98;99122.16;5090307;28;20024;-45
2023/08/01 00:50:59;;;;;;;5.25;3.92;;;;;;;26.58;49.82;99123.59;5091117;28;20091;-45
2023/08/01 00:53:25;;;;;;;5.40;3.77;;;;;;;26.62;49.20;99116.41;5091026;28;20119;-47
2023/08/01 00:55:53;;;;;;;4.65;3.70;;;;;;;26.65;49.09;99116.53;5090680;28;20349;-45
2023/08/01 00:58:19;;;;;;;4.82;3.65;;;;;;;26.55;48.95;99108.69;5090702;28;20475;-48
2023/08/01 01:00:45;;;;;;;5.20;3.70;;;;;;;26.62;49.29;99110.94;5090485;28;20043;-46
2023/08/01 01:03:11;;;;;;;4.32;3.45;;;;;;;26.49;49.54;99109.97;5090303;28;20078;-47
2023/08/01 01:05:40;;;;;;;3.95;3.55;;;;;;;26.37;49.55;99102.47;5090417;28;20056;-45
2023/08/01 01:08:06;;;;;;;4.53;3.70;;;;;;;26.36;49.65;99105.53;5090493;28;20032;-44
2023/08/01 01:10:32;;;;;;;5.47;3.50;;;;;;;26.44;49.47;99100.03;5090413;28;20039;-45
2023/08/01 01:12:57;;;;;;;4.20;3.50;;;;;;;26.46;49.49;99103.22;5090354;28;20396;-48
2023/08/01 01:15:22;;;;;;;4.93;3.60;;;;;;;26.47;49.60;99093.16;5090183;28;20164;-45
2023/08/01 01:17:48;;;;;;;5.15;3.70;;;;;;;26.48;49.18;99098.28;5090382;28;20024;-44
2023/08/01 01:20:13;;;;;;;6.03;3.70;;;;;;;26.23;50.05;99085.50;5090527;28;20308;-46
2023/08/01 01:22:40;;;;;;;5.43;3.83;;;;;;;25.93;50.80;99088.06;5090500;28;20045;-46
2023/08/01 01:25:07;;;;;;;4.10;3.58;;;;;;;25.44;52.58;99085.47;5090379;28;20039;-45
2023/08/01 01:27:34;;;;;;;5.50;3.80;;;;;;;25.34;52.36;99080.31;5089899;28;20428;-47
2023/08/01 01:30:01;;;;;;;6.70;3.75;;;;;;;25.20;52.96;99076.91;5090162;28;20059;-44
2023/08/01 01:32:28;;;;;;;5.72;3.75;;;;;;;25.21;53.00;99073.88;5071793;28;20596;-45
2023/08/01 01:34:53;;;;;;;4.15;3.67;;;;;;;25.50;52.75;99069.78;5090083;28;20036;-47
2023/08/01 01:37:19;;;;;;;4.75;4.00;;;;;;;25.44;52.98;99062.91;5089817;28;20056;-47
2023/08/01 01:39:44;;;;;;;6.90;3.90;;;;;;;25.35;53.19;99060.16;5090110;28;20028;-45
2023/08/01 01:42:10;;;;;;;5.07;3.80;;;;;;;25.40;53.21;99062.72;5090180;28;20020;-48
2023/08/01 01:44:35;;;;;;;5.93;3.90;;;;;;;25.62;53.02;99061.78;5090154;28;20028;-45
2023/08/01 01:47:01;;;;;;;4.32;3.70;;;;;;;25.56;53.08;99063.84;5089968;28;20495;-45
2023/08/01 01:49:26;;;;;;;3.80;3.40;;;;;;;25.46;53.04;99047.03;5089287;28;20314;-43
2023/08/01 01:51:51;;;;;;;4.18;3.15;;;;;;;25.76;52.39;99064.34;5089830;28;20482;-47
2023/08/01 01:54:17;;;;;;;5.72;3.70;;;;;;;25.81;52.35;99071.56;5089537;28;20072;-44
2023/08/01 01:56:42;;;;;;;5.45;3.53;;;;;;;25.83;51.75;99070.09;5089560;28;20080;-44
2023/08/01 01:59:08;;;;;;;4.35;3.53;;;;;;;25.94;51.81;99074.13;5089670;28;20012;-46
2023/08/01 02:01:33;;;;;;;4.22;3.70;;;;;;;25.91;52.05;99074.78;5089735;28;20475;-44
2023/08/01 02:03:58;;;;;;;4.07;3.60;;;;;;;25.89;51.29;99076.19;5090067;28;20028;-45
2023/08/01 02:06:24;;;;;;;3.72;3.20;;;;;;;25.86;51.05;99072.19;5089960;28;20020;-47
2023/08/01 02:08:49;;;;;;;4.00;3.60;;;;;;;25.80;51.59;99083.56;5089640;28;20437;-44
2023/08/01 02:11:15;;;;;;;4.47;3.38;;;;;;;25.80;52.01;99080.84;5089626;28;20095;-46
2023/08/01 02:13:40;;;;;;;4.03;3.38;;;;;;;25.70;52.33;99077.34;5089882;28;20383;-47
2023/08/01 02:16:06;;;;;;;3.47;3.10;;;;;;;25.71;52.37;99084.38;5089564;28;20082;-44
2023/08/01 02:18:31;;;;;;;5.15;3.55;;;;;;;25.62;52.47;99074.59;5089727;28;20024;-45
2023/08/01 02:20:56;;;;;;;5.45;3.67;;;;;;;25.60;52.60;99085.81;5089769;28;20071;-43
2023/08/01 02:23:22;;;;;;;5.22;3.40;;;;;;;25.60;52.25;99085.81;5089730;28;20012;-47
2023/08/01 02:25:47;;;;;;;4.55;3.30;;;;;;;25.56;51.52;99084.84;5089901;28;20024;-46
2023/08/01 02:28:13;;;;;;;3.90;3.50;;;;;;;25.66;51.19;99089.97;5091290;28;20016;-44
2023/08/01 02:30:38;;;;;;;3.95;3.28;;;;;;;26.10;49.84;99093.53;5093177;28;20020;-46
2023/08/01 02:33:04;;;;;;;4.55;3.28;;;;;;;26.40;49.09;99085.44;5093262;28;20106;-43
2023/08/01 02:35:29;;;;;;;4.03;3.33;;;;;;;26.50;48.29;99087.84;5092906;28;20016;-45
2023/08/01 02:37:55;;;;;;;3.70;3.30;;;;;;;26.59;48.20;99087.81;5093285;28;20031;-44
2023/08/01 02:40:21;;;;;;;3.80;3.38;;;;;;;26.56;48.10;99088.47;5093158;28;20024;-45
2023/08/01 02:42:46;;;;;;;3.83;3.40;;;;;;;26.50;48.32;99092.47;5092930;28;20122;-44
2023/08/01 02:45:12;;;;;;;5.30;3.53;;;;;;;26.47;48.17;99096.66;5092988;28;20412;-47
2023/08/01 02:47:37;;;;;;;5.68;4.40;;;;;;;26.18;49.00;99099.28;5093036;28;20401;-44
2023/08/01 02:50:03;;;;;;;28.67;16.02;;;;;;;26.09;48.84;99096.59;5092880;28;20122;-45
2023/08/01 02:52:29;;;;;;;39.53;20.42;;;;;;;25.98;48.80;99098.81;5092832;28;20471;-44
2023/08/01 02:54:54;;;;;;;37.25;22.83;;;;;;;25.79;49.59;99104.56;5092942;28;20020;-44
2023/08/01 02:57:20;;;;;;;20.73;13.65;;;;;;;25.80;49.32;99111.63;5093073;28;20023;-46
2023/08/01 02:59:45;;;;;;;12.43;7.60;;;;;;;26.13;48.48;99117.41;5092544;28;20024;-46
2023/08/01 03:02:10;;;;;;;7.30;5.65;;;;;;;25.49;52.15;99126.19;5092617;28;20088;-46
2023/08/01 03:04:36;;;;;;;5.95;5.00;;;;;;;25.28;53.75;99119.72;5092940;28;20015;-46
2023/08/01 03:07:01;;;;;;;6.28;5.20;;;;;;;25.22;54.17;99129.13;5092395;28;20016;-43
2023/08/01 03:09:27;;;;;;;6.30;5.10;;;;;;;25.40;53.98;99121.81;5092261;28;20048;-46
2023/08/01 03:11:52;;;;;;;5.18;4.65;;;;;;;25.32;54.36;99123.41;5092755;28;20157;-43
2023/08/01 03:14:18;;;;;;;8.10;5.00;;;;;;;25.01;55.23;99135.13;5092295;28;20034;-43
2023/08/01 03:16:43;;;;;;;9.90;4.97;;;;;;;25.07;55.03;99127.63;5092345;28;20137;-44
2023/08/01 03:19:09;;;;;;;10.52;4.80;;;;;;;25.27;54.59;99127.09;5092093;28;20032;-42
2023/08/01 03:21:35;;;;;;;8.98;5.20;;;;;;;25.34;53.96;99127.44;5092293;28;20031;-46
2023/08/01 03:24:01;;;;;;;5.00;4.50;;;;;;;25.47;53.95;99133.06;5092446;28;20464;-45
2023/08/01 03:26:30;;;;;;;5.85;4.53;;;;;;;25.56;53.35;99126.50;5092293;28;20020;-48
2023/08/01 03:28:56;;;;;;;6.22;4.70;;;;;;;25.67;53.37;99146.06;5092113;28;20016;-45
2023/08/01 03:31:24;;;;;;;6.78;4.80;;;;;;;25.66;53.33;99138.22;5092068;28;20039;-46
2023/08/01 03:33:49;;;;;;;6.97;4.65;;;;;;;25.71;53.35;99132.63;5091962;28;20123;-46
2023/08/01 03:36:15;;;;;;;6.43;4.78;;;;;;;25.70;53.60;99141.91;5091793;28;20047;-45
2023/08/01 03:38:40;;;;;;;5.47;4.72;;;;;;;25.79;53.28;99147.38;5091424;28;20058;-47
2023/08/01 03:41:06;;;;;;;7.78;5.10;;;;;;;25.61;53.77;99150.06;5091416;28;20020;-48
2023/08/01 03:43:31;;;;;;;22.50;13.98;;;;;;;25.58;53.48;99150.69;5091808;28;20096;-47
2023/08/01 03:45:57;;;;;;;81.93;56.03;;;;;;;25.64;52.88;99146.69;5091704;28;20036;-44
2023/08/01 03:48:22;;;;;;;31.63;22.05;;;;;;;25.55;53.16;99151.31;5091340;28;20108;-45
2023/08/01 03:50:48;;;;;;;7.80;6.28;;;;;;;25.65;52.32;99142.88;5091555;28;20488;-45
2023/08/01 03:53:13;;;;;;;5.97;3.67;;;;;;;25.62;51.66;99145.41;5091640;28;20465;-47
2023/08/01 03:55:39;;;;;;;3.80;3.38;;;;;;;25.58;52.01;99147.97;5091142;28;20031;-46
2023/08/01 03:58:04;;;;;;;6.18;3.75;;;;;;;25.44;52.01;99150.03;5091534;28;20023;-44
2023/08/01 04:00:32;;;;;;;3.63;3.22;;;;;;;25.56;51.00;99142.84;5091242;28;20040;-43
2023/08/01 04:02:58;;;;;;;5.32;3.70;;;;;;;25.52;51.62;99143.81;5091596;28;20031;-43
2023/08/01 04:05:24;;;;;;;5.85;3.47;;;;;;;25.48;51.41;99151.81;5091359;28;20028;-43
2023/08/01 04:07:49;;;;;;;3.85;3.30;;;;;;;25.61;51.24;99147.34;5091497;28;20072;-43
2023/08/01 04:10:15;;;;;;;14.32;8.25;;;;;;;25.88;50.76;99146.25;5091581;28;20129;-43
2023/08/01 04:12:42;;;;;;;42.80;29.25;;;;;;;26.02;51.01;99148.84;5091414;28;20024;-42
2023/08/01 04:15:08;;;;;;;18.35;12.65;;;;;;;25.86;51.62;99139.53;5091711;28;20035;-42
2023/08/01 04:17:34;;;;;;;7.30;5.00;;;;;;;25.84;52.24;99144.50;5091447;28;20024;-45
2023/08/01 04:19:59;;;;;;;6.07;4.80;;;;;;;25.87;52.13;99146.56;5090853;28;20027;-45
2023/08/01 04:22:24;;;;;;;8.40;4.70;;;;;;;25.91;52.03;99142.06;5091146;28;20036;-44
2023/08/01 04:24:50;;;;;;;6.00;4.63;;;;;;;26.02;51.84;99137.94;5091034;28;20024;-43
2023/08/01 04:27:16;;;;;;;5.85;4.32;;;;;;;26.18;51.72;99149.19;5091072;28;20020;-45
2023/08/01 04:29:41;;;;;;;6.18;4.15;;;;;;;26.34;51.39;99152.19;5090882;28;20024;-47
2023/08/01 04:32:07;;;;;;;7.45;4.25;;;;;;;26.50;50.81;99147.84;5090401;28;20031;-48
2023/08/01 04:34:33;;;;;;;7.90;4.32;;;;;;;26.72;49.81;99152.31;5090781;28;20028;-44
2023/08/01 04:36:58;;;;;;;6.07;4.15;;;;;;;26.71;50.06;99156.19;5090297;28;20058;-45
2023/08/01 04:39:24;;;;;;;5.55;4.40;;;;;;;26.93;50.01;99162.53;5090257;28;20024;-44
2023/08/01 04:41:49;;;;;;;6.97;4.53;;;;;;;26.17;52.53;99168.59;5090376;28;20043;-43
2023/08/01 04:44:15;;;;;;;4.93;4.20;;;;;;;26.32;51.51;99159.91;5091042;28;20026;-44
2023/08/01 04:46:41;;;;;;;7.40;4.32;;;;;;;26.55;50.25;99160.50;5090436;28;20049;-42
2023/08/01 04:49:06;;;;;;;4.15;3.55;;;;;;;26.78;49.22;99152.16;5090663;28;20039;-44
2023/08/01 04:51:32;;;;;;;6.57;4.00;;;;;;;27.40;48.17;99146.13;5090762;28;20431;-47
2023/08/01 04:53:57;;;;;;;5.35;4.43;;;;;;;27.66;47.35;99150.63;5090922;28;20028;-44
2023/08/01 04:56:22;;;;;;;5.93;4.32;;;;;;;28.17;46.28;99148.63;5090609;28;20034;-44
2023/08/01 04:58:48;;;;;;;5.53;4.10;;;;;;;28.36;45.67;99147.34;5090842;28;20028;-44
2023/08/01 05:01:13;;;;;;;7.07;3.83;;;;;;;28.53;44.70;99152.69;5090069;28;20031;-45
2023/08/01 05:03:39;;;;;;;36.80;25.20;;;;;;;28.69;44.05;99150.09;5090266;28;20028;-44
2023/08/01 05:06:04;;;;;;;5.82;4.10;;;;;;;28.47;44.45;99151.25;5089982;28;20469;-44
2023/08/01 05:08:30;;;;;;;8.38;3.85;;;;;;;28.58;44.66;99154.41;5090108;28;20329;-44
2023/08/01 05:10:55;;;;;;;6.05;3.78;;;;;;;28.57;44.33;99150.06;5089754;28;20480;-43
2023/08/01 05:13:20;;;;;;;5.00;3.50;;;;;;;28.93;43.38;99154.03;5089875;28;20480;-44
2023/08/01 05:15:47;;;;;;;4.88;3.80;;;;;;;29.00;43.30;99157.00;5089997;28;20027;-44
2023/08/01 05:18:16;;;;;;;5.00;3.72;;;;;;;29.24;42.76;99156.22;5090082;28;20379;-44
2023/08/01 05:20:42;;;;;;;4.97;3.67;;;;;;;29.48;41.51;99147.19;5089894;28;20028;-45
2023/08/01 05:23:08;;;;;;;4.97;3.55;;;;;;;29.68;41.21;99169.31;5090027;28;20107;-47
2023/08/01 05:25:33;;;;;;;5.35;3.47;;;;;;;29.74;41.19;99167.97;5089400;28;20089;-44
2023/08/01 05:27:59;;;;;;;4.82;3.70;;;;;;;29.92;40.97;99172.03;5090102;28;20036;-44
2023/08/01 05:30:24;;;;;;;4.18;3.65;;;;;;;29.99;40.60;99174.22;5090613;28;20082;-48
2023/08/01 05:32:50;;;;;;;4.25;3.45;;;;;;;29.96;40.35;99170.19;5090296;28;20028;-45
2023/08/01 05:35:16;;;;;;;3.80;3.30;;;;;;;30.06;40.21;99170.88;5090357;28;20078;-45
2023/08/01 05:37:42;;;;;;;3.38;3.08;;;;;;;30.38;38.98;99178.06;5090216;28;20175;-43
2023/08/01 05:40:08;;;;;;;3.53;3.20;;;;;;;30.79;38.85;99173.28;5090201;28;20103;-45
2023/08/01 05:42:33;;;;;;;7.53;3.38;;;;;;;31.27;38.05;99170.56;5089779;28;20093;-45
2023/08/01 05:44:59;;;;;;;7.55;3.63;;;;;;;31.81;37.35;99168.28;5090105;28;20044;-44
2023/08/01 05:47:24;;;;;;;4.63;3.58;;;;;;;31.94;37.47;99167.78;5090196;28;20024;-44
2023/08/01 05:49:50;;;;;;;6.30;3.40;;;;;;;32.04;37.10;99166.44;5089820;28;20038;-44
2023/08/01 05:52:15;;;;;;;4.88;3.30;;;;;;;32.06;37.11;99172.41;5090074;28;20404;-44
2023/08/01 05:54:41;;;;;;;6.95;3.10;;;;;;;32.05;36.67;99168.03;5090111;28;20043;-44
2023/08/01 05:57:07;;;;;;;4.70;3.08;;;;;;;31.91;36.84;99168.50;5090130;28;20032;-45
2023/08/01 05:59:33;;;;;;;5.63;3.58;;;;;;;32.12;36.68;99167.38;5089640;28;20031;-46
2023/08/01 06:01:58;;;;;;;6.00;3.70;;;;;;;32.49;36.37;99164.97;5089736;28;20031;-43
2023/08/01 06:04:24;;;;;;;3.03;2.60;;;;;;;32.75;35.79;99168.19;5093658;28;20416;-48
2023/08/01 06:06:49;;;;;;;3.47;2.88;;;;;;;33.10;35.36;99168.81;5093713;28;20028;-45
2023/08/01 06:09:14;;;;;;;3.67;3.00;;;;;;;33.07;35.00;99172.31;5093365;28;20020;-46
2023/08/01 06:11:40;;;;;;;5.05;3.50;;;;;;;33.27;34.37;99172.25;5093175;28;20063;-47
2023/08/01 06:14:05;;;;;;;5.30;3.03;;;;;;;33.93;33.90;99169.25;5093524;28;20135;-46
2023/08/01 06:16:31;;;;;;;4.53;2.80;;;;;;;33.64;33.36;99174.38;5092381;28;20032;-44
2023/08/01 06:18:56;;;;;;;3.22;2.70;;;;;;;33.50;33.84;99161.94;5091484;28;20103;-45
2023/08/01 06:21:22;;;;;;;4.00;2.67;;;;;;;33.19;33.51;99149.28;5091834;28;20055;-47
2023/08/01 06:23:47;;;;;;;9.32;3.20;;;;;;;33.55;32.58;99160.03;5091969;28;20399;-46
2023/08/01 06:26:15;;;;;;;5.38;2.80;;;;;;;33.97;32.28;99157.09;5091299;28;20055;-44
2023/08/01 06:28:41;;;;;;;4.28;3.00;;;;;;;34.34;31.55;99150.84;5091725;28;20023;-46
2023/08/01 06:31:06;;;;;;;8.65;2.92;;;;;;;34.69;30.85;99157.13;5074289;28;20381;-46
2023/08/01 06:33:31;;;;;;;5.53;3.08;;;;;;;35.10;30.47;99159.88;5092912;28;20024;-44
2023/08/01 06:35:57;;;;;;;4.40;2.70;;;;;;;34.72;30.51;99157.16;5093344;28;20059;-49
2023/08/01 06:38:23;;;;;;;11.57;4.80;;;;;;;34.43;31.31;99164.34;5092747;28;20043;-47
2023/08/01 06:40:48;;;;;;;10.57;5.93;;;;;;;34.41;31.23;99159.22;5093143;28;20024;-48
2023/08/01 06:43:14;;;;;;;13.95;10.90;;;;;;;34.49;31.18;99151.00;5093184;28;20028;-46
2023/08/01 06:45:39;;;;;;;5.25;3.97;;;;;;;34.79;30.25;99159.22;5093259;28;20077;-46
2023/08/01 06:48:05;;;;;;;6.38;3.55;;;;;;;34.95;30.13;99153.44;5092823;28;20028;-47
2023/08/01 06:50:30;;;;;;;2.90;2.50;;;;;;;34.92;29.68;99152.22;5093249;28;20077;-47
2023/08/01 06:52:56;;;;;;;4.55;2.85;;;;;;;35.26;29.38;99154.88;5092801;28;20633;-47
2023/08/01 06:55:21;;;;;;;3.53;2.30;;;;;;;35.65;29.04;99148.78;5093039;28;20024;-43
2023/08/01 06:57:46;;;;;;;5.88;2.70;;;;;;;35.49;28.71;99149.13;5093276;28;20032;-48
2023/08/01 07:00:12;;;;;;;8.18;3.95;;;;;;;35.68;28.72;99142.53;5092612;28;20077;-43
2023/08/01 07:02:38;;;;;;;5.22;2.70;;;;;;;35.97;28.57;99140.66;5092650;28;20475;-45
2023/08/01 07:05:04;;;;;;;4.40;2.72;;;;;;;36.00;28.51;99150.97;5092707;28;20024;-44
2023/08/01 07:07:30;;;;;;;2.88;2.42;;;;;;;36.12;28.37;99149.00;5092340;28;20032;-46
2023/08/01 07:09:55;;;;;;;2.88;2.58;;;;;;;35.89;28.40;99141.03;5092436;28;20111;-44
2023/08/01 07:12:21;;;;;;;3.00;2.50;;;;;;;35.77;28.79;99137.41;5092017;28;20042;-43
2023/08/01 07:14:46;;;;;;;3.28;2.80;;;;;;;36.05;28.57;99140.72;5092078;28;20028;-47
2023/08/01 07:17:11;;;;;;;4.97;2.58;;;;;;;36.16;28.36;99136.00;5092348;28;20489;-45
2023/08/01 07:19:37;;;;;;;5.32;2.70;;;;;;;36.34;27.72;99138.81;5092061;28;20074;-43
2023/08/01 07:22:03;;;;;;;3.22;2.55;;;;;;;36.54;27.31;99142.03;5092190;28;20513;-44
2023/08/01 07:24:28;;;;;;;4.78;2.70;;;;;;;36.10;27.57;99141.13;5092363;28;20050;-44
2023/08/01 07:26:53;;;;;;;4.88;2.72;;;;;;;36.59;27.62;99141.63;5092402;28;20035;-45
2023/08/01 07:29:19;;;;;;;2.70;2.38;;;;;;;36.42;27.98;99139.63;5092596;28;20044;-48
2023/08/01 07:31:45;;;;;;;3.13;2.40;;;;;;;36.44;27.30;99140.81;5092595;28;20070;-50
2023/08/01 07:34:11;;;;;;;4.18;2.60;;;;;;;36.49;27.29;99137.66;5092197;28;20506;-45
2023/08/01 07:36:36;;;;;;;5.70;2.33;;;;;;;36.70;27.21;99138.91;5092017;28;20056;-44
2023/08/01 07:39:03;;;;;;;3.85;2.53;;;;;;;36.70;26.82;99131.38;5091948;28;20024;-46
2023/08/01 07:41:30;;;;;;;3.03;1.98;;;;;;;36.59;26.89;99130.56;5091848;28;20035;-45
2023/08/01 07:43:55;;;;;;;2.97;2.50;;;;;;;36.55;27.58;99132.53;5092258;28;20151;-45
2023/08/01 07:46:20;;;;;;;5.10;2.45;;;;;;;36.74;27.18;99126.63;5091874;28;20500;-45
2023/08/01 07:48:46;;;;;;;4.15;2.75;;;;;;;36.85;27.16;99125.88;5091557;28;20054;-44
2023/08/01 07:51:11;;;;;;;3.20;2.35;;;;;;;36.48;26.89;99122.25;5091416;28;20095;-43
2023/08/01 07:53:37;;;;;;;3.42;2.70;;;;;;;35.84;27.56;99122.03;5091386;28;20093;-43
2023/08/01 07:56:03;;;;;;;5.40;2.35;;;;;;;36.35;27.10;99109.97;5091758;28;20085;-43
2023/08/01 07:58:29;;;;;;;6.80;2.50;;;;;;;36.42;26.67;99120.25;5091440;28;20023;-44
2023/08/01 08:00:55;;;;;;;4.55;3.70;;;;;;;36.18;26.99;99117.03;5091834;28;20033;-43
2023/08/01 08:03:23;;;;;;;13.25;7.65;;;;;;;36.51;27.16;99106.81;5091607;28;20454;-48
2023/08/01 08:05:49;;;;;;;3.33;2.60;;;;;;;36.60;27.20;99113.53;5091650;28;20048;-45
2023/08/01 08:08:15;;;;;;;7.60;2.67;;;;;;;36.57;26.69;99110.75;5091092;28;20032;-44
2023/08/01 08:10:40;;;;;;;4.95;2.60;;;;;;;36.93;26.91;99102.50;5091428;28;20023;-43
2023/08/01 08:13:05;;;;;;;4.25;2.30;;;;;;;37.21;26.08;99100.91;5091817;28;20024;-44
2023/08/01 08:15:34;;;;;;;6.40;2.60;;;;;;;37.31;25.38;99102.84;5091562;28;20020;-45
2023/08/01 08:18:01;;;;;;;3.97;2.70;;;;;;;37.02;26.27;99093.78;5091685;28;20027;-44
2023/08/01 08:20:26;;;;;;;4.20;2.42;;;;;;;37.05;25.98;99092.97;5091449;28;20030;-45
2023/08/01 08:22:52;;;;;;;5.68;2.45;;;;;;;36.88;26.10;99095.38;5091243;28;20460;-44
2023/08/01 08:25:17;;;;;;;3.28;2.08;;;;;;;35.96;27.05;99085.69;5090407;28;20031;-43
2023/08/01 08:27:43;;;;;;;4.68;2.40;;;;;;;36.10;26.95;99085.75;5091314;28;20040;-44
2023/08/01 08:30:09;;;;;;;2.67;2.40;;;;;;;35.35;27.53;99086.19;5091048;28;20313;-44
2023/08/01 08:32:35;;;;;;;3.15;2.70;;;;;;;35.40;27.71;99082.28;5091133;28;20028;-43
2023/08/01 08:35:00;;;;;;;4.40;3.10;;;;;;;35.83;28.17;99079.72;5091195;28;20035;-45
2023/08/01 08:37:26;;;;;;;13.85;9.80;;;;;;;36.48;26.67;99077.94;5090836;28;20052;-42
2023/08/01 08:39:51;;;;;;;3.00;2.63;;;;;;;36.44;26.49;99068.00;5090798;28;20031;-43
2023/08/01 08:42:19;;;;;;;4.05;2.60;;;;;;;36.55;26.76;99074.34;5091093;28;20016;-43
2023/08/01 08:44:48;;;;;;;3.70;3.30;;;;;;;36.98;26.59;99072.38;5090861;28;20028;-44
2023/08/01 08:47:17;;;;;;;3.88;2.70;;;;;;;37.20;25.83;99074.34;5090836;28;20027;-43
2023/08/01 08:49:44;;;;;;;3.17;2.67;;;;;;;36.89;25.86;99071.22;5090685;28;20031;-45
2023/08/01 08:52:10;;;;;;;3.70;2.53;;;;;;;37.03;25.78;99062.06;5090503;28;20118;-43
2023/08/01 08:54:37;;;;;;;3.45;2.50;;;;;;;37.23;25.44;99066.03;5090499;28;20532;-45
2023/08/01 08:57:06;;;;;;;3.83;2.40;;;;;;;37.34;26.15;99043.81;5090858;28;20024;-43
2023/08/01 08:59:33;;;;;;;3.38;2.47;;;;;;;37.22;25.54;99055.34;5090407;28;20024;-44
2023/08/01 09:02:00;;;;;;;3.80;3.33;;;;;;;37.35;25.37;99051.72;5090415;28;20459;-46
2023/08/01 09:04:27;;;;;;;2.78;2.58;;;;;;;37.24;25.31;99042.63;5090047;28;20077;-45
2023/08/01 09:06:58;;;;;;;3.25;2.50;;;;;;;36.34;26.31;99053.75;5090521;28;20394;-45
2023/08/01 09:09:26;;;;;;;2.85;2.53;;;;;;;35.93;26.79;99050.50;5090302;28;20052;-45
2023/08/01 09:11:52;;;;;;;4.50;2.40;;;;;;;36.12;26.32;99044.63;5090440;28;20470;-44
2023/08/01 09:14:19;;;;;;;3.17;2.60;;;;;;;34.46;27.88;99044.84;5090463;28;20024;-44
2023/08/01 09:16:47;;;;;;;3.75;2.50;;;;;;;34.28;28.80;99052.97;5089296;28;20069;-44
2023/08/01 09:19:17;;;;;;;3.00;2.70;;;;;;;34.61;28.02;99054.84;5090422;28;20364;-47
2023/08/01 09:21:43;;;;;;;3.15;2.80;;;;;;;35.20;27.75;99035.53;5090407;28;20059;-44
2023/08/01 09:24:21;;;;;;;4.43;2.60;;;;;;;35.52;26.77;99029.38;5089646;28;20044;-45
2023/08/01 09:26:48;;;;;;;4.18;2.50;;;;;;;35.61;26.51;99032.59;5089913;28;20016;-44
2023/08/01 09:29:16;;;;;;;3.60;2.60;;;;;;;35.79;27.23;99029.09;5089842;28;20326;-44
2023/08/01 09:31:43;;;;;;;5.05;2.80;;;;;;;36.24;27.04;99028.84;5089531;28;20488;-45
2023/08/01 09:34:22;;;;;;;4.63;2.80;;;;;;;36.94;26.23;99020.91;5089913;28;20030;-43
2023/08/01 09:36:48;;;;;;;7.35;2.80;;;;;;;37.22;25.99;99017.28;5089692;28;20059;-47
2023/08/01 09:39:18;;;;;;;3.28;2.33;;;;;;;37.42;25.35;99011.28;5093764;28;20024;-45
2023/08/01 09:41:44;;;;;;;2.97;2.40;;;;;;;37.58;25.18;99010.81;5093974;28;20064;-44
2023/08/01 09:44:16;;;;;;;4.00;2.40;;;;;;;36.89;25.62;99007.47;5094158;28;20051;-45
2023/08/01 09:46:43;;;;;;;3.10;2.40;;;;;;;37.13;25.96;98998.31;5094026;28;20104;-45
2023/08/01 09:49:09;;;;;;;5.15;2.72;;;;;;;36.55;26.50;99003.09;5094145;28;20114;-47
2023/08/01 09:51:46;;;;;;;4.65;2.72;;;;;;;36.35;26.63;98999.19;5094308;28;20016;-44
2023/08/01 09:54:11;;;;;;;3.10;2.80;;;;;;;36.06;26.93;98993.56;5093943;28;20020;-44
2023/08/01 09:56:40;;;;;;;3.30;2.42;;;;;;;35.55;28.23;98991.88;5093896;28;20024;-45
2023/08/01 09:59:05;;;;;;;4.40;2.80;;;;;;;34.62;30.09;99003.94;5094106;28;20024;-45
2023/08/01 10:01:33;;;;;;;2.95;2.55;;;;;;;34.33;30.27;99002.13;5094817;28;20108;-45
2023/08/01 10:03:59;;;;;;;5.95;3.05;;;;;;;34.69;30.15;98986.69;5094743;28;20016;-45
2023/08/01 10:06:31;;;;;;;3.20;2.90;;;;;;;34.61;29.54;98985.78;5094300;28;20472;-44
2023/08/01 10:08:58;;;;;;;5.18;2.80;;;;;;;35.14;28.96;98989.28;5094317;28;20024;-43
2023/08/01 10:11:23;;;;;;;4.05;2.90;;;;;;;35.05;28.81;98979.38;5093641;28;20023;-43
2023/08/01 10:13:49;;;;;;;3.58;2.78;;;;;;;34.97;28.85;98971.44;5093521;28;20210;-43
2023/08/01 10:16:15;;;;;;;3.75;3.33;;;;;;;35.04;29.27;98979.78;5093074;28;20039;-45
2023/08/01 10:18:42;;;;;;;3.83;3.08;;;;;;;33.86;30.57;98988.66;5093442;28;20042;-44
2023/08/01 10:21:18;;;;;;;3.20;2.90;;;;;;;33.80;31.04;98984.66;5093370;28;20020;-44
2023/08/01 10:23:45;;;;;;;3.13;2.80;;;;;;;33.48;31.60;98974.03;5093624;28;20739;-44
2023/08/01 10:26:11;;;;;;;5.18;2.90;;;;;;;33.75;30.70;98971.19;5093615;28;20518;-45
2023/08/01 10:28:39;;;;;;;3.78;2.88;;;;;;;34.01;30.43;98959.25;5093826;28;20402;-45
2023/08/01 10:31:09;;;;;;;3.40;2.92;;;;;;;34.35;29.74;98961.13;5094249;28;20016;-44
2023/08/01 10:33:35;;;;;;;5.68;3.00;;;;;;;34.51;29.64;98947.84;5094156;28;20111;-42
2023/08/01 10:36:00;;;;;;;6.43;3.15;;;;;;;35.09;29.30;98948.19;5093894;28;20184;-46
2023/08/01 10:38:26;;;;;;;3.72;3.40;;;;;;;34.80;29.56;98943.31;5094095;28;20043;-45
2023/08/01 10:40:51;;;;;;;4.55;3.13;;;;;;;34.82;29.52;98954.78;5092960;28;20529;-41
2023/08/01 10:43:24;;;;;;;3.40;2.85;;;;;;;34.67;28.87;98947.56;5092797;28;20031;-44
2023/08/01 10:46:02;;;;;;;4.97;3.10;;;;;;;34.58;28.98;98941.59;5092583;28;20020;-44
2023/08/01 10:48:28;;;;;;;6.93;3.70;;;;;;;34.62;29.32;98934.91;5093226;28;20035;-44
2023/08/01 10:50:56;;;;;;;3.90;3.50;;;;;;;34.32;29.51;98921.28;5093145;28;20024;-45
2023/08/01 10:53:22;;;;;;;3.53;3.22;;;;;;;34.21;30.30;98928.69;5093417;28;20028;-44
2023/08/01 10:55:48;;;;;;;3.78;3.40;;;;;;;34.35;29.88;98920.53;5092987;28;20050;-43
2023/08/01 10:58:14;;;;;;;3.60;3.30;;;;;;;34.84;29.48;98918.47;5093248;28;20028;-44
2023/08/01 11:00:42;;;;;;;3.90;3.50;;;;;;;34.89;28.36;98909.03;5092572;28;20027;-43
2023/08/01 11:03:07;;;;;;;3.80;3.40;;;;;;;34.31;30.04;98916.94;5092475;28;20082;-43
2023/08/01 11:05:33;;;;;;;5.18;3.50;;;;;;;34.51;29.84;98900.09;5092574;28;20028;-44
2023/08/01 11:08:01;;;;;;;3.60;3.30;;;;;;;34.34;29.87;98907.88;5092635;28;20420;-44
2023/08/01 11:10:28;;;;;;;3.60;3.30;;;;;;;34.71;30.50;98906.97;5092632;28;20050;-45
2023/08/01 11:12:54;;;;;;;3.50;3.20;;;;;;;35.14;28.84;98900.84;5092659;28;20145;-43
2023/08/01 11:15:20;;;;;;;4.50;3.47;;;;;;;34.75;29.54;98901.44;5092522;28;20073;-44
2023/08/01 11:17:51;;;;;;;4.50;3.60;;;;;;;35.04;29.37;98886.59;5093091;28;20054;-43
2023/08/01 11:20:21;;;;;;;6.55;3.50;;;;;;;34.56;29.79;98897.78;5092905;28;20035;-42
2023/08/01 11:22:54;;;;;;;3.70;3.40;;;;;;;34.80;29.90;98878.97;5092465;28;20020;-44
2023/08/01 11:25:32;;;;;;;3.75;3.40;;;;;;;35.42;28.70;98872.50;5092172;28;20041;-44
2023/08/01 11:28:02;;;;;;;3.97;3.60;;;;;;;35.38;28.79;98869.72;5092076;28;20058;-43